Time;durP1;ratioP1;P1;durP2;ratioP2;P2;SDS_P1;SDS_P2;PMS_P1;PMS_P2;Temp;Humidity;BMP_temperature;BMP_pressure;BME280_temperature;BME280_humidity;BME280_pressure;Samples;Min_cycle;Max_cycle;Signal;HPM_P1;HPM_P2
2023/11/23 00:00:36;;;;;;;18.23;16.23;;;1.30;1.00;;;;;;5099600;28;20285;-40
2023/11/23 00:03:02;;;;;;;18.40;15.60;;;1.30;1.00;;;;;;5118052;28;20434;-39
2023/11/23 00:05:28;;;;;;;19.07;15.50;;;1.30;1.00;;;;;;5117429;28;20450;-39
2023/11/23 00:07:54;;;;;;;19.00;16.63;;;1.30;1.00;;;;;;5117690;28;20428;-39
2023/11/23 00:10:20;;;;;;;17.30;15.27;;;1.30;1.00;;;;;;5117790;28;20433;-39
2023/11/23 00:12:46;;;;;;;19.00;16.17;;;1.20;1.00;;;;;;5099789;28;20839;-38
2023/11/23 00:15:11;;;;;;;19.60;16.00;;;1.20;1.00;;;;;;5117922;28;20533;-39
2023/11/23 00:17:38;;;;;;;20.10;16.30;;;1.20;1.00;;;;;;5099813;28;20184;-38
2023/11/23 00:20:06;;;;;;;20.00;15.70;;;1.20;1.00;;;;;;5118062;28;20195;-40
2023/11/23 00:22:32;;;;;;;17.43;15.47;;;1.20;1.00;;;;;;5118227;28;20855;-38
2023/11/23 00:24:58;;;;;;;18.53;15.63;;;1.20;1.00;;;;;;5118147;28;20501;-38
2023/11/23 00:27:24;;;;;;;18.63;15.43;;;1.10;1.00;;;;;;5117730;28;20863;-39
2023/11/23 00:29:51;;;;;;;21.43;15.13;;;1.10;1.00;;;;;;5117920;28;20451;-38
2023/11/23 00:32:17;;;;;;;18.47;16.00;;;1.10;1.00;;;;;;5117102;28;20297;-41
2023/11/23 00:34:42;;;;;;;16.00;14.30;;;1.10;1.00;;;;;;5118153;28;20489;-38
2023/11/23 00:37:08;;;;;;;18.77;15.30;;;1.00;1.00;;;;;;5118325;28;20438;-36
2023/11/23 00:39:34;;;;;;;17.80;14.77;;;0.90;51.50;;;;;;5116630;28;20427;-43
2023/11/23 00:42:00;;;;;;;16.83;14.33;;;1.00;99.90;;;;;;5117959;28;20216;-38
2023/11/23 00:44:25;;;;;;;13.90;10.33;;;1.00;99.90;;;;;;5117682;28;20421;-41
2023/11/23 00:46:51;;;;;;;20.17;15.60;;;1.90;1.00;;;;;;5117265;28;20298;-36
2023/11/23 00:49:17;;;;;;;24.20;20.60;;;3.40;1.00;;;;;;5116673;28;20522;-38
2023/11/23 00:51:43;;;;;;;22.23;18.83;;;3.60;1.00;;;;;;5116702;28;20192;-39
2023/11/23 00:54:09;;;;;;;21.67;18.50;;;3.10;1.00;;;;;;5117342;28;20755;-40
2023/11/23 00:56:36;;;;;;;21.10;18.67;;;2.70;1.00;;;;;;5119115;28;20421;-38
2023/11/23 00:59:02;;;;;;;24.10;18.03;;;2.40;1.00;;;;;;5117432;28;20178;-37
2023/11/23 01:01:28;;;;;;;22.60;19.43;;;2.10;1.00;;;;;;5117187;28;20481;-40
2023/11/23 01:03:54;;;;;;;23.80;19.63;;;2.00;1.00;;;;;;5115746;28;20444;-37
2023/11/23 01:06:20;;;;;;;27.40;20.23;;;1.90;1.00;;;;;;5117064;28;20160;-37
2023/11/23 01:08:45;;;;;;;25.40;19.50;;;1.80;1.00;;;;;;5117693;28;20421;-37
2023/11/23 01:11:11;;;;;;;22.27;17.97;;;1.60;1.00;;;;;;5117283;28;20168;-39
2023/11/23 01:13:37;;;;;;;21.70;17.10;;;1.50;99.90;;;;;;5117608;28;20183;-39
2023/11/23 01:16:03;;;;;;;22.27;18.10;;;1.40;99.90;;;;;;5119464;28;20168;-38
2023/11/23 01:18:28;;;;;;;20.17;17.30;;;1.40;99.90;;;;;;5120769;28;20863;-37
2023/11/23 01:20:54;;;;;;;19.50;16.70;;;1.30;1.00;;;;;;5120639;28;20203;-40
2023/11/23 01:23:19;;;;;;;23.63;16.77;;;1.30;1.00;;;;;;5120180;28;20180;-37
2023/11/23 01:25:48;;;;;;;18.40;15.13;;;1.30;1.00;;;;;;5120954;28;20248;-37
2023/11/23 01:28:14;;;;;;;21.50;16.60;;;1.30;1.00;;;;;;5119080;28;20175;-37
2023/11/23 01:30:39;;;;;;;20.63;16.67;;;1.30;1.00;;;;;;5117441;28;20496;-37
2023/11/23 01:33:05;;;;;;;19.70;15.77;;;1.40;1.00;;;;;;5118494;28;20555;-38
2023/11/23 01:35:30;;;;;;;17.83;14.43;;;1.40;1.00;;;;;;5098584;28;20190;-38
2023/11/23 01:37:56;;;;;;;19.23;16.37;;;1.30;1.00;;;;;;5116010;28;20195;-39
2023/11/23 01:40:22;;;;;;;20.03;15.73;;;1.40;1.00;;;;;;5115835;28;20577;-39
2023/11/23 01:42:47;;;;;;;18.10;15.57;;;1.40;1.00;;;;;;5115837;28;20473;-39
2023/11/23 01:45:13;;;;;;;18.23;14.50;;;1.50;1.00;;;;;;5102332;28;20438;-37
2023/11/23 01:47:46;;;;;;;18.83;15.23;;;1.40;99.90;;;;;;5102144;28;20278;-40
2023/11/23 01:50:13;;;;;;;18.17;15.80;;;1.40;99.90;;;;;;5120431;28;20184;-38
2023/11/23 01:52:39;;;;;;;18.77;15.00;;;1.40;99.90;;;;;;5101899;28;20711;-39
2023/11/23 01:55:04;;;;;;;19.30;14.40;;;1.40;99.90;;;;;;5121036;28;20421;-38
2023/11/23 01:57:33;;;;;;;19.73;14.57;;;1.40;99.90;;;;;;5102963;28;20183;-38
2023/11/23 01:59:59;;;;;;;17.07;14.27;;;1.50;99.90;;;;;;5101793;28;20425;-39
2023/11/23 02:02:28;;;;;;;18.37;14.40;;;1.40;99.90;;;;;;5120193;28;20469;-38
2023/11/23 02:04:56;;;;;;;18.40;15.33;;;1.40;99.90;;;;;;5118906;28;20172;-38
2023/11/23 02:07:21;;;;;;;19.83;15.50;;;1.40;99.90;;;;;;5101179;28;20445;-40
2023/11/23 02:09:47;;;;;;;18.00;15.30;;;1.30;99.90;;;;;;5119282;28;20448;-40
2023/11/23 02:12:12;;;;;;;17.17;13.87;;;1.30;99.90;;;;;;5119205;28;20181;-38
2023/11/23 02:14:38;;;;;;;16.70;14.00;;;1.30;99.90;;;;;;5118786;28;20191;-41
2023/11/23 02:17:17;;;;;;;15.70;13.40;;;1.30;99.90;;;;;;5119151;28;20573;-40
2023/11/23 02:19:47;;;;;;;19.47;14.53;;;1.30;99.90;;;;;;5119322;28;20572;-38
2023/11/23 02:22:13;;;;;;;18.33;14.07;;;1.40;99.90;;;;;;5118802;28;20469;-39
2023/11/23 02:24:39;;;;;;;15.27;13.33;;;1.30;99.90;;;;;;5119228;28;20508;-37
2023/11/23 02:27:06;;;;;;;17.77;14.57;;;1.30;99.90;;;;;;5119631;28;20422;-38
2023/11/23 02:29:31;;;;;;;16.20;13.60;;;1.20;99.90;;;;;;5119704;28;20433;-39
2023/11/23 02:31:58;;;;;;;19.57;15.40;;;1.20;99.90;;;;;;5119589;28;20509;-38
2023/11/23 02:34:24;;;;;;;16.90;13.27;;;1.20;99.90;;;;;;5119223;28;20266;-39
2023/11/23 02:36:50;;;;;;;17.90;14.37;;;1.10;1.00;;;;;;5119397;28;20445;-38
2023/11/23 02:39:15;;;;;;;19.50;15.93;;;1.10;1.00;;;;;;5119657;28;20175;-39
2023/11/23 02:41:42;;;;;;;18.97;15.03;;;1.10;1.00;;;;;;5101071;28;20211;-39
2023/11/23 02:44:08;;;;;;;21.93;15.20;;;1.10;1.00;;;;;;5119803;28;20219;-39
2023/11/23 02:46:33;;;;;;;21.20;15.50;;;1.10;1.00;;;;;;5119641;28;20429;-38
2023/11/23 02:52:21;;;;;;;16.60;13.37;;;1.10;1.00;;;;;;5117082;28;20226;-39
2023/11/23 02:54:46;;;;;;;18.23;15.87;;;1.10;1.00;;;;;;5100414;28;20413;-39
2023/11/23 02:57:12;;;;;;;18.00;14.60;;;1.10;1.00;;;;;;5119006;28;20193;-39
2023/11/23 02:59:38;;;;;;;19.90;15.53;;;1.10;1.00;;;;;;5118486;28;20179;-38
2023/11/23 03:02:03;;;;;;;18.83;15.10;;;1.10;1.00;;;;;;5118305;28;20212;-39
2023/11/23 03:04:29;;;;;;;20.20;15.60;;;1.10;1.00;;;;;;5118461;28;20526;-39
2023/11/23 03:06:54;;;;;;;21.07;15.43;;;1.00;1.00;;;;;;5117658;28;20186;-39
2023/11/23 03:09:20;;;;;;;15.70;12.97;;;1.10;1.00;;;;;;5119542;28;20176;-38
2023/11/23 03:11:46;;;;;;;17.37;13.47;;;1.10;1.00;;;;;;5118979;28;20435;-38
2023/11/23 03:14:12;;;;;;;17.63;13.53;;;1.00;1.00;;;;;;5119072;28;20255;-39
2023/11/23 03:16:38;;;;;;;19.00;14.30;;;1.00;1.00;;;;;;5118890;28;20527;-39
2023/11/23 03:19:04;;;;;;;17.03;13.47;;;1.00;1.00;;;;;;5118766;28;20451;-40
2023/11/23 03:21:29;;;;;;;17.17;13.20;;;1.00;1.00;;;;;;5118705;28;20480;-40
2023/11/23 03:23:56;;;;;;;16.40;12.50;;;1.00;1.00;;;;;;5119025;28;20272;-39
2023/11/23 03:26:22;;;;;;;15.83;13.10;;;1.00;1.00;;;;;;5119138;28;20175;-39
2023/11/23 03:28:48;;;;;;;19.30;14.97;;;1.00;1.00;;;;;;5119115;28;20426;-38
2023/11/23 03:31:13;;;;;;;18.83;13.73;;;1.00;1.00;;;;;;5118797;28;20446;-39
2023/11/23 03:33:39;;;;;;;15.10;12.63;;;1.00;1.00;;;;;;5118345;28;20491;-39
2023/11/23 03:36:07;;;;;;;16.43;12.70;;;1.00;1.00;;;;;;5118483;28;20275;-39
2023/11/23 03:38:33;;;;;;;18.80;12.87;;;0.90;1.00;;;;;;5117489;28;20469;-38
2023/11/23 03:40:59;;;;;;;16.30;11.90;;;0.90;1.00;;;;;;5117673;28;20794;-40
2023/11/23 03:43:25;;;;;;;17.03;12.77;;;0.90;1.00;;;;;;5118154;28;20467;-38
2023/11/23 03:45:51;;;;;;;18.73;13.33;;;0.90;1.00;;;;;;5117411;28;20437;-38
2023/11/23 03:48:17;;;;;;;17.03;13.50;;;0.90;1.00;;;;;;5118212;28;20429;-40
2023/11/23 03:50:43;;;;;;;18.17;12.70;;;0.80;1.00;;;;;;5117807;28;20210;-38
2023/11/23 03:53:09;;;;;;;15.63;12.30;;;0.80;1.00;;;;;;5117107;28;20469;-38
2023/11/23 03:55:35;;;;;;;17.50;13.20;;;0.90;1.00;;;;;;5116483;28;20175;-38
2023/11/23 03:58:02;;;;;;;17.13;12.60;;;0.80;1.00;;;;;;5098248;28;20819;-38
2023/11/23 04:00:28;;;;;;;16.93;12.97;;;0.80;1.00;;;;;;5115062;28;20182;-37
2023/11/23 04:02:55;;;;;;;17.23;13.57;;;0.70;1.00;;;;;;5116267;28;20890;-37
2023/11/23 04:05:21;;;;;;;17.50;12.80;;;0.80;1.00;;;;;;5116750;28;20176;-40
2023/11/23 04:07:46;;;;;;;16.33;13.00;;;0.80;1.00;;;;;;5117004;28;20416;-38
2023/11/23 04:10:13;;;;;;;15.70;12.20;;;0.70;1.00;;;;;;5117603;28;20183;-39
2023/11/23 04:12:38;;;;;;;17.47;13.43;;;0.80;1.00;;;;;;5117332;28;20576;-37
2023/11/23 04:15:05;;;;;;;19.53;13.10;;;0.80;1.00;;;;;;5117014;28;20433;-39
2023/11/23 04:17:30;;;;;;;17.07;12.37;;;0.80;1.00;;;;;;5117522;28;20187;-40
2023/11/23 04:19:56;;;;;;;16.30;11.77;;;0.80;1.00;;;;;;5117265;28;20845;-38
2023/11/23 04:22:22;;;;;;;15.97;11.50;;;0.80;1.00;;;;;;5116538;28;20305;-38
2023/11/23 04:24:48;;;;;;;17.00;12.23;;;0.80;1.00;;;;;;5099022;28;20290;-38
2023/11/23 04:27:14;;;;;;;18.80;13.30;;;0.80;1.00;;;;;;5117010;28;20172;-39
2023/11/23 04:29:40;;;;;;;15.67;11.00;;;0.70;1.00;;;;;;5117280;28;20426;-37
2023/11/23 04:32:10;;;;;;;15.20;11.03;;;0.70;1.00;;;;;;5117252;28;20424;-37
2023/11/23 04:34:36;;;;;;;14.20;11.20;;;0.70;1.00;;;;;;5117020;28;20420;-39
2023/11/23 04:37:02;;;;;;;16.47;11.70;;;0.70;1.00;;;;;;5116017;28;20433;-48
2023/11/23 04:39:28;;;;;;;14.50;11.67;;;0.70;1.00;;;;;;5116615;28;20533;-37
2023/11/23 04:41:55;;;;;;;15.60;11.37;;;0.80;1.00;;;;;;5117047;28;20913;-38
2023/11/23 04:44:21;;;;;;;13.80;11.10;;;0.80;1.00;;;;;;5098587;28;20189;-37
2023/11/23 04:46:47;;;;;;;16.40;11.80;;;0.80;1.00;;;;;;5117009;28;20822;-38
2023/11/23 04:49:12;;;;;;;13.50;10.57;;;0.80;1.00;;;;;;5098889;28;20463;-39
2023/11/23 04:51:39;;;;;;;22.63;13.47;;;0.80;1.00;;;;;;5116817;28;20468;-37
2023/11/23 04:54:05;;;;;;;28.63;19.60;;;0.80;1.00;;;;;;5117061;28;20294;-39
2023/11/23 04:56:31;;;;;;;16.90;12.57;;;0.80;1.00;;;;;;5116818;28;20430;-41
2023/11/23 04:58:57;;;;;;;16.87;12.70;;;0.70;1.00;;;;;;5117289;28;20180;-38
2023/11/23 05:01:23;;;;;;;24.93;17.40;;;0.70;1.00;;;;;;5116853;28;20207;-40
2023/11/23 05:03:48;;;;;;;14.47;11.40;;;0.70;1.80;;;;;;5099898;28;20425;-41
2023/11/23 05:06:15;;;;;;;17.47;12.70;;;0.70;6.10;;;;;;5119407;28;20190;-38
2023/11/23 05:08:41;;;;;;;15.43;11.57;;;0.70;1.00;;;;;;5117518;28;20280;-38
2023/11/23 05:11:07;;;;;;;16.37;11.80;;;0.60;5.10;;;;;;5121506;28;20486;-39
2023/11/23 05:13:32;;;;;;;14.83;10.37;;;0.70;14.50;;;;;;5121772;28;20448;-38
2023/11/23 05:15:58;;;;;;;15.17;11.07;;;0.70;45.20;;;;;;5119369;28;20180;-38
2023/11/23 05:18:24;;;;;;;17.07;11.80;;;0.70;43.60;;;;;;5121406;28;20194;-38
2023/11/23 05:20:49;;;;;;;15.93;12.30;;;0.60;78.90;;;;;;5118999;28;20185;-38
2023/11/23 05:23:15;;;;;;;13.87;11.00;;;0.60;94.60;;;;;;5118522;28;20549;-38
2023/11/23 05:25:41;;;;;;;15.93;11.03;;;0.70;93.00;;;;;;5118883;28;20179;-36
2023/11/23 05:28:06;;;;;;;15.10;12.40;;;0.60;90.50;;;;;;5118925;28;20189;-39
2023/11/23 05:30:32;;;;;;;15.00;12.20;;;0.60;88.20;;;;;;5118735;28;20574;-39
2023/11/23 05:33:04;;;;;;;15.17;11.70;;;0.60;93.40;;;;;;5119549;28;20186;-39
2023/11/23 05:35:30;;;;;;;13.07;9.70;;;0.60;56.20;;;;;;5119080;28;20457;-41
2023/11/23 05:37:59;;;;;;;12.47;9.93;;;0.60;36.20;;;;;;5118956;28;20717;-39
2023/11/23 05:40:25;;;;;;;14.93;11.47;;;0.60;39.60;;;;;;5117917;28;20452;-36
2023/11/23 05:42:51;;;;;;;12.37;10.10;;;0.60;47.90;;;;;;5117312;28;20526;-38
2023/11/23 05:45:18;;;;;;;13.37;10.33;;;0.60;50.40;;;;;;5118100;28;20192;-38
2023/11/23 05:47:44;;;;;;;13.43;10.80;;;0.60;31.20;;;;;;5114824;28;20418;-37
2023/11/23 05:50:11;;;;;;;11.37;9.03;;;0.50;37.00;;;;;;5116033;28;20422;-38
2023/11/23 05:52:37;;;;;;;13.13;10.30;;;0.50;30.20;;;;;;5118418;28;20259;-38
2023/11/23 05:55:03;;;;;;;12.83;9.57;;;0.50;45.60;;;;;;5118164;28;20422;-39
2023/11/23 05:57:28;;;;;;;11.60;9.40;;;0.50;73.50;;;;;;5118183;28;20433;-40
2023/11/23 05:59:54;;;;;;;14.80;10.90;;;0.50;74.60;;;;;;5117198;28;20507;-39
2023/11/23 06:02:20;;;;;;;17.20;11.97;;;0.50;58.40;;;;;;5117658;28;20207;-38
2023/11/23 06:04:46;;;;;;;18.27;13.23;;;0.50;56.70;;;;;;5100695;28;20176;-39
2023/11/23 06:07:14;;;;;;;13.60;10.63;;;0.50;58.10;;;;;;5114136;28;20436;-38
2023/11/23 06:09:42;;;;;;;14.03;9.60;;;0.50;78.90;;;;;;5095244;28;20320;-38
2023/11/23 06:12:08;;;;;;;13.50;10.40;;;0.60;62.80;;;;;;5113182;28;20426;-38
2023/11/23 06:14:36;;;;;;;11.80;9.23;;;0.60;81.00;;;;;;5112261;28;20429;-40
2023/11/23 06:17:06;;;;;;;14.10;11.13;;;0.50;77.40;;;;;;5097050;28;20432;-38
2023/11/23 06:19:32;;;;;;;13.33;10.13;;;0.50;79.10;;;;;;5114698;28;20429;-38
2023/11/23 06:21:58;;;;;;;24.50;19.00;;;0.50;50.60;;;;;;5115932;28;20732;-39
2023/11/23 06:24:23;;;;;;;24.13;21.20;;;0.50;52.90;;;;;;5089127;28;20466;-38
2023/11/23 06:26:49;;;;;;;14.80;12.23;;;0.50;65.40;;;;;;5092959;28;20695;-38
2023/11/23 06:29:15;;;;;;;11.60;9.90;;;0.50;95.90;;;;;;5090760;28;20176;-39
2023/11/23 06:31:41;;;;;;;16.40;11.20;;;0.60;99.90;;;;;;5100995;28;20469;-38
2023/11/23 06:34:08;;;;;;;14.00;9.50;;;0.60;74.80;;;;;;5095082;28;20183;-38
2023/11/23 06:36:34;;;;;;;16.13;11.03;;;0.60;52.80;;;;;;5093519;28;20417;-40
2023/11/23 06:38:59;;;;;;;11.73;8.80;;;0.60;47.00;;;;;;5094490;28;20434;-38
2023/11/23 06:41:25;;;;;;;11.30;9.23;;;0.60;78.10;;;;;;5107931;28;20250;-39
2023/11/23 06:43:52;;;;;;;12.50;9.17;;;0.60;30.00;;;;;;5117528;28;20267;-37
2023/11/23 06:46:18;;;;;;;10.80;8.60;;;0.60;52.30;;;;;;5116664;28;20229;-39
2023/11/23 06:48:46;;;;;;;15.20;9.60;;;0.70;98.50;;;;;;5097401;28;20520;-39
2023/11/23 06:51:13;;;;;;;10.57;8.60;;;0.70;95.80;;;;;;5095748;28;20498;-39
2023/11/23 06:53:46;;;;;;;13.20;9.80;;;0.70;99.90;;;;;;5096461;28;20641;-38
2023/11/23 06:56:12;;;;;;;11.17;8.93;;;0.80;99.90;;;;;;5098696;28;20450;-38
2023/11/23 06:58:40;;;;;;;15.70;12.27;;;0.80;99.90;;;;;;5089150;28;20438;-38
2023/11/23 07:01:09;;;;;;;14.33;11.10;;;0.80;98.00;;;;;;5089870;28;20458;-38
2023/11/23 07:03:38;;;;;;;12.27;9.70;;;0.90;33.10;;;;;;5092668;28;20410;-39
2023/11/23 07:06:05;;;;;;;11.77;8.90;;;0.90;1.00;;;;;;5093489;28;20423;-38
2023/11/23 07:08:33;;;;;;;10.73;8.27;;;0.90;1.00;;;;;;5094225;28;20426;-39
2023/11/23 07:11:00;;;;;;;10.17;8.10;;;0.90;9.40;;;;;;5094189;28;20673;-38
2023/11/23 07:13:26;;;;;;;9.83;8.50;;;1.00;20.40;;;;;;5094845;28;20418;-39
2023/11/23 07:15:52;;;;;;;11.37;8.10;;;1.00;17.30;;;;;;5095792;28;20403;-39
2023/11/23 07:18:17;;;;;;;10.97;8.43;;;1.10;17.40;;;;;;5097316;28;20641;-38
2023/11/23 07:20:43;;;;;;;12.07;8.00;;;1.20;21.60;;;;;;5096106;28;20421;-38
2023/11/23 07:23:10;;;;;;;9.57;7.27;;;1.30;1.00;;;;;;5095241;28;20189;-38
2023/11/23 07:25:42;;;;;;;9.00;6.90;;;1.40;1.00;;;;;;5094752;28;20418;-39
2023/11/23 07:28:14;;;;;;;9.87;8.33;;;1.40;1.00;;;;;;5110557;28;20429;-37
2023/11/23 07:30:40;;;;;;;9.80;7.73;;;1.60;1.00;;;;;;5114498;28;20764;-38
2023/11/23 07:33:07;;;;;;;9.67;7.77;;;1.70;99.90;;;;;;5094786;28;20536;-39
2023/11/23 07:35:33;;;;;;;7.73;6.90;;;1.90;1.00;;;;;;5114551;28;20421;-40
2023/11/23 07:38:00;;;;;;;8.50;6.20;;;2.10;99.90;;;;;;5114976;28;20527;-39
2023/11/23 07:40:26;;;;;;;9.00;7.17;;;2.30;99.90;;;;;;5115020;28;20436;-39
2023/11/23 07:42:55;;;;;;;7.00;6.10;;;2.50;99.90;;;;;;5096729;28;20573;-41
2023/11/23 07:45:20;;;;;;;7.87;5.87;;;2.50;1.00;;;;;;5094874;28;20176;-40
2023/11/23 07:47:46;;;;;;;7.00;6.00;;;2.50;1.00;;;;;;5092690;28;20436;-38
2023/11/23 07:50:16;;;;;;;6.90;5.63;;;2.50;1.00;;;;;;5094231;28;20236;-38
2023/11/23 07:52:43;;;;;;;5.70;5.17;;;2.40;1.00;;;;;;5095610;28;20524;-38
2023/11/23 07:55:10;;;;;;;5.93;4.80;;;2.40;1.00;;;;;;5114594;28;20757;-40
2023/11/23 07:57:36;;;;;;;6.83;5.80;;;2.40;1.00;;;;;;5096847;28;20458;-37
2023/11/23 08:00:04;;;;;;;6.90;5.30;;;2.40;1.00;;;;;;5093732;28;20431;-38
2023/11/23 08:02:30;;;;;;;8.00;5.50;;;2.40;1.00;;;;;;5093093;28;20890;-41
2023/11/23 08:04:57;;;;;;;5.47;4.60;;;2.60;78.70;;;;;;5094933;28;20426;-39
2023/11/23 08:07:24;;;;;;;5.70;4.87;;;2.70;1.00;;;;;;5095805;28;20998;-38
2023/11/23 08:09:50;;;;;;;6.47;5.10;;;2.90;99.90;;;;;;5096628;28;20712;-38
2023/11/23 08:12:15;;;;;;;7.37;5.33;;;3.00;1.00;;;;;;5095589;28;20504;-36
2023/11/23 08:14:41;;;;;;;7.50;4.80;;;3.10;1.00;;;;;;5077640;28;20426;-38
2023/11/23 08:17:08;;;;;;;5.33;4.70;;;3.10;99.90;;;;;;5095476;28;20180;-38
2023/11/23 08:19:34;;;;;;;6.37;5.50;;;3.20;99.90;;;;;;5077648;28;20188;-37
2023/11/23 08:22:00;;;;;;;6.10;5.10;;;3.20;99.90;;;;;;5095086;28;20945;-39
2023/11/23 08:24:26;;;;;;;7.13;5.00;;;3.40;99.90;;;;;;5103823;28;20482;-37
2023/11/23 08:26:52;;;;;;;7.23;5.70;;;3.50;1.00;;;;;;5113952;28;20896;-40
2023/11/23 08:29:18;;;;;;;6.00;5.10;;;3.90;1.00;;;;;;5099741;28;20194;-39
2023/11/23 08:31:45;;;;;;;5.67;4.43;;;4.30;1.00;;;;;;5112058;28;20457;-41
2023/11/23 08:34:11;;;;;;;7.13;5.30;;;4.60;99.90;;;;;;5113801;28;20434;-39
2023/11/23 08:36:41;;;;;;;7.87;5.30;;;4.80;99.90;;;;;;5115724;28;20429;-39
2023/11/23 08:39:11;;;;;;;7.33;5.13;;;5.10;1.00;;;;;;5080669;28;20862;-39
2023/11/23 08:41:40;;;;;;;7.67;5.23;;;5.30;1.00;;;;;;5113743;28;20469;-41
2023/11/23 08:44:06;;;;;;;6.63;5.77;;;5.40;1.00;;;;;;5113955;28;20453;-37
2023/11/23 08:46:33;;;;;;;6.17;5.57;;;5.20;1.00;;;;;;5113932;28;20440;-39
2023/11/23 08:49:00;;;;;;;6.27;4.50;;;5.10;1.00;;;;;;5113100;28;20586;-39
2023/11/23 08:51:26;;;;;;;5.80;5.17;;;5.00;54.50;;;;;;5114044;28;20831;-40
2023/11/23 08:53:51;;;;;;;7.77;5.03;;;5.00;99.90;;;;;;5114338;28;20488;-37
2023/11/23 08:56:17;;;;;;;6.73;4.93;;;4.90;99.90;;;;;;5113257;28;20525;-39
2023/11/23 08:58:42;;;;;;;7.33;5.43;;;4.80;1.00;;;;;;5113304;28;20191;-39
2023/11/23 09:01:08;;;;;;;5.13;4.63;;;4.80;47.70;;;;;;5095728;28;20222;-36
2023/11/23 09:03:35;;;;;;;5.33;4.60;;;4.70;99.90;;;;;;5094388;28;20196;-37
2023/11/23 09:06:01;;;;;;;5.27;4.77;;;4.50;1.00;;;;;;5094817;28;20862;-39
2023/11/23 09:08:26;;;;;;;5.23;4.70;;;4.50;23.40;;;;;;5077512;28;20352;-41
2023/11/23 09:10:54;;;;;;;6.37;5.30;;;4.50;1.00;;;;;;5076099;28;20488;-42
2023/11/23 09:13:20;;;;;;;4.70;4.20;;;5.20;99.90;;;;;;5094602;28;20279;-40
2023/11/23 09:15:46;;;;;;;4.50;4.07;;;5.50;1.00;;;;;;5094364;28;20505;-37
2023/11/23 09:18:12;;;;;;;6.07;4.40;;;5.50;99.90;;;;;;5094415;28;20727;-45
2023/11/23 09:20:38;;;;;;;5.23;4.17;;;5.70;1.00;;;;;;5095453;28;20430;-45
2023/11/23 09:23:03;;;;;;;5.70;4.80;;;6.00;1.00;;;;;;5076135;28;20211;-45
2023/11/23 09:25:33;;;;;;;7.87;4.90;;;6.50;1.00;;;;;;5076663;28;20349;-45
2023/11/23 09:28:02;;;;;;;7.60;4.70;;;6.90;1.00;;;;;;5094205;28;20275;-45
2023/11/23 09:30:28;;;;;;;5.83;4.90;;;7.10;99.90;;;;;;5094485;28;20627;-43
2023/11/23 09:32:55;;;;;;;5.47;4.70;;;7.60;1.00;;;;;;5093745;28;20440;-45
2023/11/23 09:35:21;;;;;;;6.70;5.07;;;8.00;99.90;;;;;;5075954;28;20385;-45
2023/11/23 09:37:47;;;;;;;8.50;6.17;;;8.30;99.90;;;;;;5094324;28;20827;-45
2023/11/23 09:40:23;;;;;;;7.27;6.50;;;8.50;99.90;;;;;;5094876;28;20434;-45
2023/11/23 09:42:49;;;;;;;7.50;5.20;;;8.10;99.90;;;;;;5095580;28;20525;-46
2023/11/23 09:45:20;;;;;;;9.13;5.10;;;7.50;1.00;;;;;;5094075;28;20426;-45
2023/11/23 09:47:49;;;;;;;6.73;5.07;;;7.40;1.00;;;;;;5075512;28;20176;-45
2023/11/23 09:50:16;;;;;;;5.20;4.70;;;7.40;1.00;;;;;;5092384;28;20445;-44
2023/11/23 09:52:42;;;;;;;5.70;4.70;;;7.20;1.00;;;;;;5091797;28;20562;-45
2023/11/23 09:55:09;;;;;;;5.83;4.50;;;7.00;99.90;;;;;;5073819;28;20496;-45
2023/11/23 09:57:35;;;;;;;6.30;4.37;;;6.80;99.90;;;;;;5090291;28;20533;-46
2023/11/23 10:00:09;;;;;;;5.97;5.37;;;6.60;1.00;;;;;;5061013;28;20511;-45
2023/11/23 10:02:36;;;;;;;6.73;5.27;;;6.50;99.90;;;;;;5092940;28;20786;-46
2023/11/23 10:05:03;;;;;;;8.53;4.90;;;6.60;1.00;;;;;;5094877;28;20405;-46
2023/11/23 10:07:29;;;;;;;5.33;4.83;;;6.80;99.90;;;;;;5061245;28;20437;-46
2023/11/23 10:09:55;;;;;;;10.07;5.00;;;6.90;1.00;;;;;;5079433;28;20418;-46
2023/11/23 10:12:23;;;;;;;5.07;4.57;;;7.40;1.00;;;;;;5096920;28;20267;-46
2023/11/23 10:14:52;;;;;;;4.97;4.40;;;8.50;1.00;;;;;;5095531;28;20422;-46
2023/11/23 10:17:20;;;;;;;5.00;4.50;;;9.20;99.90;;;;;;5094777;28;20456;-46
2023/11/23 10:19:46;;;;;;;6.40;4.77;;;9.40;99.90;;;;;;5094467;28;20968;-46
2023/11/23 10:22:12;;;;;;;5.13;4.63;;;8.60;99.90;;;;;;5095383;28;20561;-45
2023/11/23 10:24:50;;;;;;;5.43;4.90;;;8.20;99.90;;;;;;5079282;28;20438;-45
2023/11/23 10:27:19;;;;;;;6.50;5.13;;;7.60;1.00;;;;;;5079581;28;20184;-45
2023/11/23 10:29:46;;;;;;;6.00;4.70;;;7.40;99.90;;;;;;5097313;28;20419;-46
2023/11/23 10:32:15;;;;;;;6.07;5.10;;;7.40;99.90;;;;;;5096953;28;20531;-47
2023/11/23 10:34:42;;;;;;;7.10;5.67;;;6.90;99.90;;;;;;5095591;28;20399;-45
2023/11/23 10:37:08;;;;;;;6.57;5.17;;;6.70;99.90;;;;;;5078356;28;20426;-46
2023/11/23 10:39:34;;;;;;;6.10;5.50;;;6.30;1.00;;;;;;5060707;28;20438;-46
2023/11/23 10:42:02;;;;;;;6.50;5.07;;;6.10;1.00;;;;;;5092385;28;20530;-45
2023/11/23 10:44:29;;;;;;;6.67;5.90;;;6.10;1.00;;;;;;5093607;28;20172;-46
2023/11/23 10:47:02;;;;;;;7.50;6.10;;;6.10;1.00;;;;;;5091779;28;20839;-45
2023/11/23 10:49:35;;;;;;;6.40;5.80;;;6.00;13.10;;;;;;5075851;28;20501;-45
2023/11/23 10:52:03;;;;;;;8.90;6.20;;;6.10;61.50;;;;;;5094766;28;20422;-46
2023/11/23 10:54:29;;;;;;;6.00;5.03;;;5.90;99.90;;;;;;5091063;28;20450;-46
2023/11/23 10:56:57;;;;;;;6.23;5.00;;;6.00;1.00;;;;;;5092808;28;20852;-45
2023/11/23 10:59:24;;;;;;;5.87;5.23;;;6.00;1.00;;;;;;5073793;28;20188;-45
2023/11/23 11:01:53;;;;;;;7.00;5.63;;;6.10;1.00;;;;;;5075976;28;20502;-45
2023/11/23 11:04:19;;;;;;;6.60;5.70;;;6.20;1.00;;;;;;5076761;28;20419;-45
2023/11/23 11:06:47;;;;;;;5.70;5.10;;;6.10;1.00;;;;;;5077564;28;20417;-46
2023/11/23 11:09:14;;;;;;;5.20;4.70;;;6.10;1.00;;;;;;5095965;28;20703;-46
2023/11/23 11:11:44;;;;;;;6.13;5.30;;;6.10;1.00;;;;;;5094511;28;20422;-46
2023/11/23 11:14:16;;;;;;;5.03;4.50;;;6.00;1.00;;;;;;5075920;28;20434;-45
2023/11/23 11:16:42;;;;;;;6.30;5.47;;;6.00;99.90;;;;;;5079342;28;20703;-46
2023/11/23 11:19:11;;;;;;;5.67;5.07;;;6.10;92.60;;;;;;5096412;28;20707;-45
2023/11/23 11:21:58;;;;;;;6.70;5.67;;;6.20;1.00;;;;;;5096091;28;20617;-46
2023/11/23 11:24:24;;;;;;;5.97;5.37;;;6.30;27.20;;;;;;5096129;28;20479;-46
2023/11/23 11:26:50;;;;;;;6.70;5.33;;;6.40;1.00;;;;;;5094906;28;20836;-46
2023/11/23 11:29:17;;;;;;;5.40;4.87;;;6.50;1.00;;;;;;5094891;28;20237;-46
2023/11/23 11:31:44;;;;;;;5.93;4.87;;;6.50;1.00;;;;;;5059300;28;20518;-46
2023/11/23 11:34:17;;;;;;;6.00;4.67;;;6.40;1.00;;;;;;5075240;28;20434;-46
2023/11/23 11:36:43;;;;;;;6.37;5.27;;;6.40;1.00;;;;;;5093044;28;20422;-46
2023/11/23 11:39:12;;;;;;;5.37;4.70;;;6.30;99.90;;;;;;5076886;28;20491;-46
2023/11/23 11:41:38;;;;;;;5.97;5.23;;;6.40;23.20;;;;;;5094587;28;20630;-46
2023/11/23 11:44:12;;;;;;;5.20;4.13;;;6.40;99.90;;;;;;5094236;28;20502;-53
2023/11/23 11:46:38;;;;;;;5.00;4.37;;;6.50;99.90;;;;;;5095023;28;20434;-47
2023/11/23 11:49:04;;;;;;;4.80;4.10;;;6.50;99.90;;;;;;5094278;28;20891;-46
2023/11/23 11:51:33;;;;;;;5.90;4.00;;;6.70;66.00;;;;;;5094447;28;20462;-46
2023/11/23 11:53:59;;;;;;;4.17;3.77;;;6.80;99.90;;;;;;5076900;28;20482;-46
2023/11/23 11:56:25;;;;;;;4.27;3.60;;;6.90;1.00;;;;;;5094635;28;20642;-47
2023/11/23 11:58:51;;;;;;;3.70;3.10;;;7.00;1.00;;;;;;5093402;28;20177;-45
2023/11/23 12:01:21;;;;;;;4.43;3.00;;;7.20;99.90;;;;;;5075191;28;20462;-46
2023/11/23 12:03:49;;;;;;;6.07;3.20;;;7.20;81.50;;;;;;5093754;28;20419;-45
2023/11/23 12:06:18;;;;;;;4.17;3.53;;;7.20;99.90;;;;;;5093755;28;20719;-46
2023/11/23 12:08:49;;;;;;;4.33;3.40;;;7.20;99.90;;;;;;5093932;28;20696;-46
2023/11/23 12:11:26;;;;;;;4.60;3.63;;;7.30;99.90;;;;;;5075142;28;20454;-46
2023/11/23 12:13:55;;;;;;;3.70;3.40;;;7.40;1.00;;;;;;5093918;28;20433;-45
2023/11/23 12:16:31;;;;;;;6.27;3.40;;;7.30;1.00;;;;;;5093794;28;20572;-43
2023/11/23 12:18:56;;;;;;;4.83;3.80;;;7.50;1.00;;;;;;5091764;28;20428;-46
2023/11/23 12:21:22;;;;;;;4.13;3.23;;;7.70;99.90;;;;;;5092302;28;20466;-45
2023/11/23 12:23:48;;;;;;;5.53;3.20;;;7.70;99.90;;;;;;5092687;28;20241;-46
2023/11/23 12:26:14;;;;;;;3.67;3.37;;;7.70;99.90;;;;;;5091185;28;20199;-46
2023/11/23 12:28:40;;;;;;;10.43;3.10;;;7.80;1.00;;;;;;5092223;28;20176;-46
2023/11/23 12:31:07;;;;;;;3.90;3.07;;;7.80;1.00;;;;;;5076297;28;20426;-46
2023/11/23 12:33:33;;;;;;;4.00;2.50;;;7.90;1.00;;;;;;5092503;28;20441;-45
2023/11/23 12:36:01;;;;;;;3.33;3.03;;;8.10;1.00;;;;;;5073975;28;20448;-46
2023/11/23 12:38:27;;;;;;;3.60;3.10;;;8.20;99.90;;;;;;5092988;28;20440;-48
2023/11/23 12:40:52;;;;;;;3.30;2.93;;;8.40;1.00;;;;;;5091857;28;20493;-47
2023/11/23 12:43:18;;;;;;;2.17;1.90;;;8.60;99.90;;;;;;5073665;28;20820;-47
2023/11/23 12:45:43;;;;;;;2.90;2.00;;;8.80;1.00;;;;;;5093055;28;20184;-47
2023/11/23 12:48:13;;;;;;;2.00;1.80;;;8.90;1.00;;;;;;5075548;28;20184;-47
2023/11/23 12:50:40;;;;;;;3.30;2.40;;;8.80;1.00;;;;;;5092237;28;20180;-45
2023/11/23 12:53:06;;;;;;;2.60;1.90;;;8.60;1.00;;;;;;5094057;28;20485;-45